Map

Track Data

SID SEASON NUMBER BASIN SUBBASIN NAME ISO_TIME NATURE LAT LON WMO_WIND WMO_PRES WMO_AGENCY TRACK_TYPE DIST2LAND LANDFALL IFLAG USA_AGENCY USA_ATCF_ID USA_LAT USA_LON USA_RECORD USA_STATUS USA_WIND USA_PRES USA_SSHS USA_R34_NE USA_R34_SE USA_R34_SW USA_R34_NW USA_R50_NE USA_R50_SE USA_R50_SW USA_R50_NW USA_R64_NE USA_R64_SE USA_R64_SW USA_R64_NW USA_POCI USA_ROCI USA_RMW USA_EYE TOKYO_LAT TOKYO_LON TOKYO_GRADE TOKYO_WIND TOKYO_PRES TOKYO_R50_DIR TOKYO_R50_LONG TOKYO_R50_SHORT TOKYO_R30_DIR TOKYO_R30_LONG TOKYO_R30_SHORT TOKYO_LAND CMA_LAT CMA_LON CMA_CAT CMA_WIND CMA_PRES HKO_LAT HKO_LON HKO_CAT HKO_WIND HKO_PRES NEWDELHI_LAT NEWDELHI_LON NEWDELHI_GRADE NEWDELHI_WIND NEWDELHI_PRES NEWDELHI_CI NEWDELHI_DP NEWDELHI_POCI REUNION_LAT REUNION_LON REUNION_TYPE REUNION_WIND REUNION_PRES REUNION_TNUM REUNION_CI REUNION_RMW REUNION_R34_NE REUNION_R34_SE REUNION_R34_SW REUNION_R34_NW REUNION_R50_NE REUNION_R50_SE REUNION_R50_SW REUNION_R50_NW REUNION_R64_NE REUNION_R64_SE REUNION_R64_SW REUNION_R64_NW BOM_LAT BOM_LON BOM_TYPE BOM_WIND BOM_PRES BOM_TNUM BOM_CI BOM_RMW BOM_R34_NE BOM_R34_SE BOM_R34_SW BOM_R34_NW BOM_R50_NE BOM_R50_SE BOM_R50_SW BOM_R50_NW BOM_R64_NE BOM_R64_SE BOM_R64_SW BOM_R64_NW BOM_ROCI BOM_POCI BOM_EYE BOM_POS_METHOD BOM_PRES_METHOD NADI_LAT NADI_LON NADI_CAT NADI_WIND NADI_PRES WELLINGTON_LAT WELLINGTON_LON WELLINGTON_WIND WELLINGTON_PRES DS824_LAT DS824_LON DS824_STAGE DS824_WIND DS824_PRES TD9636_LAT TD9636_LON TD9636_STAGE TD9636_WIND TD9636_PRES TD9635_LAT TD9635_LON TD9635_WIND TD9635_PRES TD9635_ROCI NEUMANN_LAT NEUMANN_LON NEUMANN_CLASS NEUMANN_WIND NEUMANN_PRES MLC_LAT MLC_LON MLC_CLASS MLC_WIND MLC_PRES USA_GUST BOM_GUST BOM_GUST_PER REUNION_GUST REUNION_GUST_PER USA_SEAHGT USA_SEARAD_NE USA_SEARAD_SE USA_SEARAD_SW USA_SEARAD_NW STORM_SPEED STORM_DIR
1919096S09129 1919 9 SI WA NOT_NAMED 1919-04-05 12:00:00 NR -8.90000 129.200 main 216 205 __________O___ -1 -8.90000 129.200 7 2 247
1919096S09129 1919 9 SI WA NOT_NAMED 1919-04-05 15:00:00 NR -8.94689 129.086 main 205 198 __________P___ -1 -8.94689 129.086 7 2 248
1919096S09129 1919 9 SI WA NOT_NAMED 1919-04-05 18:00:00 NR -8.99501 128.968 main 198 178 __________P___ -1 -8.99501 128.968 7 3 248
1919096S09129 1919 9 SI WA NOT_NAMED 1919-04-05 21:00:00 NR -9.04563 128.840 main 178 172 __________P___ -1 -9.04563 128.840 7 3 248
1919096S09129 1919 9 SI WA NOT_NAMED 1919-04-06 00:00:00 NR -9.10000 128.700 main 172 163 __________O___ -1 -9.10000 128.700 7 3 249
1919096S09129 1919 9 SI WA NOT_NAMED 1919-04-06 03:00:00 NR -9.15968 128.543 main 159 150 __________P___ -1 -9.15968 128.543 7 3 248
1919096S09129 1919 9 SI WA NOT_NAMED 1919-04-06 06:00:00 NR -9.22748 128.372 main 150 141 __________P___ -1 -9.22748 128.372 7 4 247
1919096S09129 1919 9 SI WA NOT_NAMED 1919-04-06 09:00:00 NR -9.30654 128.190 main 141 133 __________P___ -1 -9.30654 128.190 7 4 245
1919096S09129 1919 9 SI WA NOT_NAMED 1919-04-06 12:00:00 NR -9.40000 128.000 main 133 125 __________O___ -1 -9.40000 128.000 7 4 241
1919096S09129 1919 9 SI WA NOT_NAMED 1919-04-06 15:00:00 NR -9.51873 127.807 main 125 120 __________P___ -1 -9.51873 127.807 7 5 237
1919096S09129 1919 9 SI WA NOT_NAMED 1919-04-06 18:00:00 NR -9.64998 127.608 main 120 120 __________P___ -1 -9.64998 127.608 7 5 237
1919096S09129 1919 9 SI WA NOT_NAMED 1919-04-06 21:00:00 NR -9.78123 127.404 main 130 125 __________P___ -1 -9.78123 127.404 7 5 238
1919096S09129 1919 9 SI WA NOT_NAMED 1919-04-07 00:00:00 NR -9.90000 127.200 main 126 120 __________O___ -1 -9.90000 127.200 7 4 243
1919096S09129 1919 9 SI WA NOT_NAMED 1919-04-07 03:00:00 NR -9.98526 127.004 main 124 116 __________P___ -1 -9.98526 127.004 7 4 248
1919096S09129 1919 9 SI WA NOT_NAMED 1919-04-07 06:00:00 NR -10.0574 126.807 main 127 123 __________P___ -1 -10.0574 126.807 7 4 250
1919096S09129 1919 9 SI WA NOT_NAMED 1919-04-07 09:00:00 NR -10.1259 126.607 main 123 123 __________P___ -1 -10.1259 126.607 7 4 250
1919096S09129 1919 9 SI WA NOT_NAMED 1919-04-07 12:00:00 NR -10.2000 126.400 main 134 130 __________O___ -1 -10.2000 126.400 7 5 249
1919096S09129 1919 9 SI WA NOT_NAMED 1919-04-07 15:00:00 NR -10.2928 126.174 main 138 129 __________P___ -1 -10.2928 126.174 7 5 247
1919096S09129 1919 9 SI WA NOT_NAMED 1919-04-07 18:00:00 NR -10.3925 125.943 main 133 125 __________P___ -1 -10.3925 125.943 7 5 246
1919096S09129 1919 9 SI WA NOT_NAMED 1919-04-07 21:00:00 NR -10.4960 125.715 main 125 117 __________P___ -1 -10.4960 125.715 7 5 244
1919096S09129 1919 9 SI WA NOT_NAMED 1919-04-08 00:00:00 NR -10.6000 125.500 main 117 109 __________O___ -1 -10.6000 125.500 7 4 242
1919096S09129 1919 9 SI WA NOT_NAMED 1919-04-08 03:00:00 NR -10.7039 125.323 main 109 109 __________P___ -1 -10.7039 125.323 7 4 238
1919096S09129 1919 9 SI WA NOT_NAMED 1919-04-08 06:00:00 NR -10.8073 125.157 main 109 102 __________P___ -1 -10.8073 125.157 7 4 238
1919096S09129 1919 9 SI WA NOT_NAMED 1919-04-08 09:00:00 NR -10.9071 124.988 main 104 99 __________P___ -1 -10.9071 124.988 7 4 241
1919096S09129 1919 9 SI WA NOT_NAMED 1919-04-08 12:00:00 NR -11.0000 124.800 main 106 103 __________O___ -1 -11.0000 124.800 7 5 248
1919096S09129 1919 9 SI WA NOT_NAMED 1919-04-08 15:00:00 NR -11.0782 124.563 main 111 95 __________P___ -1 -11.0782 124.563 7 5 253
1919096S09129 1919 9 SI WA NOT_NAMED 1919-04-08 18:00:00 NR -11.1501 124.307 main 104 95 __________P___ -1 -11.1501 124.307 7 5 254
1919096S09129 1919 9 SI WA NOT_NAMED 1919-04-08 21:00:00 NR -11.2219 124.048 main 92 92 __________P___ -1 -11.2219 124.048 7 5 253
1919096S09129 1919 9 SI WA NOT_NAMED 1919-04-09 00:00:00 NR -11.3000 123.800 main 100 100 __________O___ -1 -11.3000 123.800 7 5 250
1919096S09129 1919 9 SI WA NOT_NAMED 1919-04-09 03:00:00 NR -11.3845 123.598 main 112 112 __________P___ -1 -11.3845 123.598 7 4 245
1919096S09129 1919 9 SI WA NOT_NAMED 1919-04-09 06:00:00 NR -11.4773 123.407 main 123 123 __________P___ -1 -11.4773 123.407 7 4 242
1919096S09129 1919 9 SI WA NOT_NAMED 1919-04-09 09:00:00 NR -11.5814 123.213 main 138 138 __________P___ -1 -11.5814 123.213 7 5 241
1919096S09129 1919 9 SI WA NOT_NAMED 1919-04-09 12:00:00 NR -11.7000 123.000 main 155 155 __________O___ -1 -11.7000 123.000 7 5 240
1919096S09129 1919 9 SI WA NOT_NAMED 1919-04-09 15:00:00 NR -11.8349 122.756 main 174 174 __________P___ -1 -11.8349 122.756 7 6 241
1919096S09129 1919 9 SI WA NOT_NAMED 1919-04-09 18:00:00 NR -11.9829 122.485 main 209 209 __________P___ -1 -11.9829 122.485 7 6 241
1919096S09129 1919 9 SI WA NOT_NAMED 1919-04-09 21:00:00 NR -12.1394 122.197 main 237 237 __________P___ -1 -12.1394 122.197 7 7 241
1919096S09129 1919 9 SI WA NOT_NAMED 1919-04-10 00:00:00 NR -12.3000 121.900 main 269 __________O___ -1 -12.3000 121.900 7 7 241

About IBTrACS Database

This database is a web-friendly format of International Best Track Archive for Climate Stewardship (IBTrACS), a global best track data archive curated by NOAA dating back to 1842.

Updated: 2021-10-19